createdAt,value
2023-07-18T00:00:37.994Z,70.20
2023-07-18T00:03:08.936Z,70.50
2023-07-18T00:05:39.423Z,70.70
2023-07-18T00:08:09.863Z,70.90
2023-07-18T00:10:39.810Z,71.40
2023-07-18T00:13:11.710Z,70.70
2023-07-18T00:15:41.788Z,71.60
2023-07-18T00:18:11.968Z,71.80
2023-07-18T00:20:42.392Z,73.50
2023-07-18T00:23:13.102Z,72.80
2023-07-18T00:25:43.118Z,74.30
2023-07-18T00:28:14.733Z,74.20
2023-07-18T00:30:45.117Z,74.90
2023-07-18T00:33:15.237Z,75.30
2023-07-18T00:35:45.521Z,75.20
2023-07-18T00:41:02.573Z,76.20
2023-07-18T00:43:35.671Z,75.80
2023-07-18T00:46:07.134Z,76.40
2023-07-18T00:48:37.792Z,76.40
2023-07-18T00:51:09.423Z,76.40
2023-07-18T00:53:42.316Z,77.00
2023-07-18T00:56:12.928Z,77.50
2023-07-18T00:58:44.684Z,78.20
2023-07-18T01:01:15.440Z,77.90
2023-07-18T01:03:45.900Z,78.40
2023-07-18T01:06:16.450Z,78.90
2023-07-18T01:08:46.559Z,79.00
2023-07-18T01:11:16.714Z,79.90
2023-07-18T01:13:48.909Z,79.70
2023-07-18T01:16:18.990Z,79.60
2023-07-18T01:18:49.170Z,80.00
2023-07-18T01:21:22.891Z,80.60
2023-07-18T01:23:53.224Z,81.00
2023-07-18T01:26:23.269Z,80.70
2023-07-18T01:28:53.495Z,81.30
2023-07-18T01:31:23.371Z,81.40
2023-07-18T01:33:53.620Z,81.00
2023-07-18T01:36:26.278Z,81.70
2023-07-18T01:38:56.659Z,82.30
2023-07-18T01:41:26.852Z,82.10
2023-07-18T01:43:57.506Z,83.40
2023-07-18T01:46:29.370Z,84.20
2023-07-18T01:49:00.769Z,84.00
2023-07-18T01:51:33.711Z,84.20
2023-07-18T01:54:04.256Z,85.30
2023-07-18T01:56:35.123Z,85.20
2023-07-18T01:59:05.486Z,85.50
2023-07-18T02:01:35.586Z,85.20
2023-07-18T02:04:06.127Z,85.70
2023-07-18T02:06:37.808Z,86.20
2023-07-18T02:09:08.816Z,86.60
2023-07-18T02:11:38.875Z,87.20
2023-07-18T02:14:09.297Z,87.80
2023-07-18T02:16:39.513Z,87.80
2023-07-18T02:19:09.673Z,88.10
2023-07-18T02:21:41.357Z,87.80
2023-07-18T02:24:12.564Z,88.80
2023-07-18T02:26:42.675Z,89.50
2023-07-18T02:29:13.216Z,90.10
2023-07-18T02:31:43.112Z,90.00
2023-07-18T02:34:13.530Z,90.40
2023-07-18T02:36:45.654Z,90.40
2023-07-18T02:39:16.823Z,90.50
2023-07-18T02:41:46.870Z,90.80
2023-07-18T02:44:17.092Z,91.00
2023-07-18T02:46:47.379Z,91.20
2023-07-18T02:49:17.273Z,91.20
2023-07-18T02:51:49.475Z,91.20
2023-07-18T02:54:19.722Z,91.40
2023-07-18T02:56:50.434Z,91.70
2023-07-18T02:59:22.539Z,91.70
2023-07-18T03:01:52.957Z,92.00
2023-07-18T03:04:23.026Z,92.20
2023-07-18T03:06:54.906Z,92.30
2023-07-18T03:09:25.016Z,92.50
2023-07-18T03:11:55.410Z,92.80
2023-07-18T03:14:25.838Z,92.70
2023-07-18T03:16:56.457Z,92.90
2023-07-18T03:19:26.615Z,93.20
2023-07-18T03:21:58.100Z,93.40
2023-07-18T03:24:28.456Z,93.40
2023-07-18T03:26:58.348Z,93.80
2023-07-18T03:29:28.612Z,93.80
2023-07-18T03:32:01.037Z,94.00
2023-07-18T03:34:31.709Z,94.00
2023-07-18T03:37:04.552Z,93.90
2023-07-18T03:39:34.643Z,94.40
2023-07-18T03:42:04.910Z,94.50
2023-07-18T03:44:35.196Z,94.60
2023-07-18T03:47:15.677Z,94.80
2023-07-18T03:49:50.737Z,94.80
2023-07-18T03:52:22.544Z,94.90
2023-07-18T03:54:52.894Z,94.90
2023-07-18T03:57:23.373Z,95.30
2023-07-18T03:59:56.901Z,95.50
2023-07-18T04:02:29.804Z,95.60
2023-07-18T04:05:01.475Z,95.70
2023-07-18T04:07:34.488Z,96.10
2023-07-18T04:10:04.958Z,95.90
2023-07-18T04:12:35.129Z,96.00
2023-07-18T04:15:05.747Z,95.90
2023-07-18T04:17:35.961Z,96.10
2023-07-18T04:20:07.899Z,96.20
2023-07-18T04:22:40.682Z,96.60
2023-07-18T04:25:10.187Z,96.60
2023-07-18T04:27:40.251Z,97.20
2023-07-18T04:30:11.952Z,97.10
2023-07-18T04:32:43.663Z,97.00
2023-07-18T04:35:13.903Z,97.00
2023-07-18T04:37:53.457Z,97.10
2023-07-18T04:40:29.464Z,97.20
2023-07-18T04:43:02.228Z,97.70
2023-07-18T04:45:33.568Z,97.60
2023-07-18T04:48:05.593Z,97.60
2023-07-18T04:53:27.630Z,97.70
2023-07-18T04:55:59.191Z,98.00
2023-07-18T04:58:35.805Z,98.30
2023-07-18T05:01:06.998Z,98.60
2023-07-18T05:03:55.802Z,98.80
2023-07-18T05:06:27.614Z,98.70
2023-07-18T05:09:02.692Z,98.90
2023-07-18T05:11:35.362Z,99.20
2023-07-18T05:14:05.635Z,99.30
2023-07-18T05:16:36.891Z,99.10
2023-07-18T05:19:11.999Z,99.50
2023-07-18T05:21:44.163Z,99.60
2023-07-18T05:24:19.352Z,99.70
2023-07-18T05:26:52.930Z,99.20
2023-07-18T05:29:26.422Z,99.00
2023-07-18T05:31:57.523Z,98.70
2023-07-18T05:34:30.355Z,98.50
2023-07-18T05:37:01.631Z,98.40
2023-07-18T05:39:33.633Z,98.40
2023-07-18T05:42:04.528Z,98.10
2023-07-18T05:44:34.879Z,98.10
2023-07-18T05:47:04.983Z,98.30
2023-07-18T05:49:35.222Z,98.30
2023-07-18T05:52:05.686Z,98.30
2023-07-18T05:54:39.576Z,98.30
2023-07-18T05:57:11.608Z,98.20
2023-07-18T05:59:41.721Z,98.10
2023-07-18T06:02:11.810Z,97.90
2023-07-18T06:04:42.714Z,97.90
2023-07-18T06:07:13.907Z,98.10
2023-07-18T06:09:45.715Z,97.90
2023-07-18T06:12:16.518Z,97.80
2023-07-18T06:14:46.698Z,97.80
2023-07-18T06:17:18.240Z,97.30
2023-07-18T06:19:48.854Z,97.40
2023-07-18T06:22:20.193Z,97.50
2023-07-18T06:24:51.774Z,97.40
2023-07-18T06:27:21.944Z,96.80
2023-07-18T06:29:51.921Z,97.00
2023-07-18T06:32:22.263Z,96.70
2023-07-18T06:34:52.323Z,96.50
2023-07-18T06:37:22.358Z,96.20
2023-07-18T06:39:54.142Z,96.50
2023-07-18T06:42:24.118Z,96.40
2023-07-18T06:44:54.213Z,95.90
2023-07-18T06:47:25.892Z,95.70
2023-07-18T06:49:58.029Z,95.50
2023-07-18T06:52:33.998Z,95.80
2023-07-18T06:55:13.073Z,95.40
2023-07-18T06:57:44.765Z,94.90
2023-07-18T07:00:16.225Z,94.80
2023-07-18T07:02:46.273Z,94.50
2023-07-18T07:05:16.601Z,93.90
2023-07-18T07:07:47.236Z,93.80
2023-07-18T07:10:19.306Z,93.20
2023-07-18T07:12:49.572Z,92.70
2023-07-18T07:15:20.208Z,91.20
2023-07-18T07:17:50.422Z,91.30
2023-07-18T07:20:21.262Z,90.50
2023-07-18T07:22:51.633Z,89.90
2023-07-18T07:25:23.831Z,86.50
2023-07-18T07:27:54.167Z,84.80
2023-07-18T07:30:24.623Z,85.80
2023-07-18T07:32:55.368Z,83.80
2023-07-18T07:35:25.444Z,82.60
2023-07-18T07:37:55.659Z,82.90
2023-07-18T07:40:27.125Z,82.80
2023-07-18T07:42:57.147Z,82.40
2023-07-18T07:45:28.145Z,80.00
2023-07-18T07:47:58.471Z,79.50
2023-07-18T07:50:28.604Z,79.20
2023-07-18T07:52:58.623Z,78.50
2023-07-18T07:55:32.177Z,75.00
2023-07-18T07:58:02.360Z,74.60
2023-07-18T08:00:35.435Z,74.00
2023-07-18T08:03:15.181Z,71.00
2023-07-18T08:05:45.584Z,71.70
2023-07-18T08:08:15.848Z,71.20
2023-07-18T08:10:48.344Z,70.60
2023-07-18T08:13:22.838Z,72.40
2023-07-18T08:19:24.473Z,67.90
2023-07-18T08:22:07.190Z,68.00
2023-07-18T08:24:39.944Z,68.40
2023-07-18T08:27:11.581Z,67.50
2023-07-18T08:29:44.320Z,66.80
2023-07-18T08:32:15.133Z,66.00
2023-07-18T08:34:46.692Z,65.40
2023-07-18T08:37:17.087Z,63.40
2023-07-18T08:39:47.446Z,63.20
2023-07-18T08:42:21.636Z,61.60
2023-07-18T08:44:52.648Z,62.00
2023-07-18T08:47:24.494Z,61.80
2023-07-18T08:49:55.531Z,60.20
2023-07-18T08:52:26.257Z,60.40
2023-07-18T08:54:57.056Z,61.40
2023-07-18T08:57:28.999Z,60.80
2023-07-18T08:59:59.049Z,60.40
2023-07-18T09:02:29.140Z,59.50
2023-07-18T09:05:00.190Z,59.00
2023-07-18T09:07:30.660Z,59.50
2023-07-18T09:10:01.649Z,58.30
2023-07-18T09:12:34.152Z,58.80
2023-07-18T09:15:04.390Z,57.70
2023-07-18T09:17:38.193Z,57.80
2023-07-18T09:20:10.047Z,57.70
2023-07-18T09:22:41.771Z,57.70
2023-07-18T09:25:16.636Z,57.00
2023-07-18T09:27:48.517Z,57.00
2023-07-18T09:30:23.563Z,55.80
2023-07-18T09:32:55.978Z,55.70
2023-07-18T09:35:29.234Z,56.40
2023-07-18T09:37:59.802Z,54.60
2023-07-18T09:40:30.377Z,54.40
2023-07-18T09:43:04.171Z,54.30
2023-07-18T09:45:34.606Z,54.10
2023-07-18T09:48:06.524Z,53.20
2023-07-18T09:50:38.713Z,52.30
2023-07-18T09:53:13.297Z,52.30
2023-07-18T09:55:46.668Z,52.40
2023-07-18T09:58:22.131Z,52.90
2023-07-18T10:00:52.512Z,51.70
2023-07-18T10:03:24.447Z,50.60
2023-07-18T10:05:54.926Z,50.70
2023-07-18T10:08:25.962Z,51.40
2023-07-18T10:11:06.117Z,51.10
2023-07-18T10:13:44.511Z,50.40
2023-07-18T10:16:22.038Z,49.40
2023-07-18T10:18:53.196Z,50.60
2023-07-18T10:21:34.598Z,51.70
2023-07-18T10:24:33.785Z,51.90
2023-07-18T10:27:11.823Z,50.30
2023-07-18T10:29:45.073Z,50.90
2023-07-18T10:32:15.600Z,50.30
2023-07-18T10:34:56.266Z,50.70
2023-07-18T10:37:28.675Z,50.60
2023-07-18T10:39:58.938Z,50.50
2023-07-18T10:42:32.704Z,49.90
2023-07-18T10:45:07.486Z,51.30
2023-07-18T10:47:40.285Z,49.80
2023-07-18T10:50:13.198Z,50.40
2023-07-18T10:52:44.694Z,50.00
2023-07-18T10:55:14.737Z,49.60
2023-07-18T10:57:45.726Z,48.70
2023-07-18T11:00:19.609Z,49.40
2023-07-18T11:03:04.922Z,49.90
2023-07-18T11:05:39.741Z,49.10
2023-07-18T11:08:13.570Z,48.50
2023-07-18T11:10:46.238Z,48.20
2023-07-18T11:13:19.499Z,47.90
2023-07-18T11:15:55.373Z,48.60
2023-07-18T11:18:31.397Z,46.90
2023-07-18T11:21:10.300Z,46.30
2023-07-18T11:23:42.328Z,47.90
2023-07-18T11:26:18.684Z,47.40
2023-07-18T11:28:54.692Z,46.80
2023-07-18T11:31:39.439Z,46.30
2023-07-18T11:34:12.432Z,46.00
2023-07-18T11:36:44.122Z,45.80
2023-07-18T11:39:22.060Z,46.10
2023-07-18T11:41:54.006Z,45.10
2023-07-18T11:44:28.197Z,45.70
2023-07-18T11:47:00.189Z,45.50
2023-07-18T11:49:37.604Z,44.30
2023-07-18T11:52:10.080Z,45.60
2023-07-18T11:54:40.259Z,45.30
2023-07-18T11:57:10.474Z,46.10
2023-07-18T11:59:40.502Z,44.10
2023-07-18T12:02:12.420Z,44.40
2023-07-18T12:04:44.567Z,43.50
2023-07-18T12:07:14.890Z,43.00
2023-07-18T12:09:45.225Z,42.90
2023-07-18T12:12:18.635Z,43.80
2023-07-18T12:14:49.406Z,41.70
2023-07-18T12:17:21.381Z,42.50
2023-07-18T12:19:52.234Z,41.90
2023-07-18T12:22:22.830Z,41.40
2023-07-18T12:24:53.603Z,41.60
2023-07-18T12:27:23.924Z,42.80
2023-07-18T12:29:54.522Z,43.60
2023-07-18T12:32:30.211Z,43.20
2023-07-18T12:35:02.195Z,42.70
2023-07-18T12:37:32.437Z,41.90
2023-07-18T12:40:02.789Z,42.40
2023-07-18T12:42:32.855Z,41.90
2023-07-18T12:45:03.257Z,41.70
2023-07-18T12:47:35.138Z,42.40
2023-07-18T12:50:05.153Z,42.10
2023-07-18T12:52:35.684Z,42.30
2023-07-18T12:55:07.076Z,41.80
2023-07-18T12:57:37.515Z,41.90
2023-07-18T13:00:08.998Z,41.20
2023-07-18T13:02:41.596Z,41.00
2023-07-18T13:05:13.521Z,41.30
2023-07-18T13:07:44.210Z,41.80
2023-07-18T13:10:15.107Z,42.10
2023-07-18T13:12:45.592Z,41.20
2023-07-18T13:15:16.130Z,41.90
2023-07-18T13:17:48.400Z,41.70
2023-07-18T13:20:20.788Z,41.80
2023-07-18T13:22:52.138Z,41.20
2023-07-18T13:25:22.817Z,40.90
2023-07-18T13:27:53.672Z,41.10
2023-07-18T13:30:25.322Z,41.00
2023-07-18T13:32:57.780Z,40.70
2023-07-18T13:35:28.662Z,39.10
2023-07-18T13:37:58.903Z,40.00
2023-07-18T13:40:29.255Z,39.10
2023-07-18T13:43:00.143Z,38.70
2023-07-18T13:45:31.198Z,40.10
2023-07-18T13:48:04.179Z,38.80
2023-07-18T13:50:34.412Z,38.70
2023-07-18T13:53:04.647Z,38.50
2023-07-18T13:55:34.533Z,38.60
2023-07-18T13:58:04.777Z,40.00
2023-07-18T14:00:35.302Z,39.10
2023-07-18T14:03:16.241Z,38.40
2023-07-18T14:05:55.187Z,39.70
2023-07-18T14:08:26.248Z,39.40
2023-07-18T14:10:57.277Z,39.80
2023-07-18T14:13:27.854Z,40.30
2023-07-18T14:15:58.434Z,40.60
2023-07-18T14:18:30.791Z,41.30
2023-07-18T14:21:01.172Z,40.70
2023-07-18T14:23:32.515Z,40.80
2023-07-18T14:26:03.583Z,40.80
2023-07-18T14:28:34.155Z,39.90
2023-07-18T14:31:04.770Z,40.40
2023-07-18T14:33:39.485Z,41.30
2023-07-18T14:36:12.857Z,41.60
2023-07-18T14:38:43.895Z,41.90
2023-07-18T14:41:15.295Z,42.20
2023-07-18T14:43:45.672Z,41.60
2023-07-18T14:46:15.815Z,41.60
2023-07-18T14:48:47.869Z,40.70
2023-07-18T14:51:18.152Z,41.50
2023-07-18T14:53:48.315Z,41.80
2023-07-18T14:56:18.521Z,41.30
2023-07-18T14:58:48.898Z,41.30
2023-07-18T15:01:20.971Z,41.20
2023-07-18T15:03:53.362Z,41.00
2023-07-18T15:06:24.290Z,40.90
2023-07-18T15:08:55.108Z,41.10
2023-07-18T15:11:25.965Z,40.50
2023-07-18T15:13:55.898Z,41.00
2023-07-18T15:16:27.603Z,41.40
2023-07-18T15:18:59.210Z,41.30
2023-07-18T15:21:30.101Z,42.10
2023-07-18T15:24:00.571Z,41.90
2023-07-18T15:26:31.173Z,42.40
2023-07-18T15:29:01.449Z,43.00
2023-07-18T15:31:31.734Z,43.40
2023-07-18T15:34:03.380Z,43.30
2023-07-18T15:36:33.498Z,43.50
2023-07-18T15:39:03.976Z,43.50
2023-07-18T15:41:33.850Z,43.50
2023-07-18T15:44:05.206Z,43.70
2023-07-18T15:46:35.624Z,44.30
2023-07-18T15:49:07.842Z,44.50
2023-07-18T15:51:38.060Z,43.70
2023-07-18T15:54:08.287Z,43.70
2023-07-18T15:56:38.197Z,44.00
2023-07-18T15:59:08.642Z,44.00
2023-07-18T16:01:39.041Z,44.50
2023-07-18T16:04:11.337Z,44.50
2023-07-18T16:06:41.357Z,44.50
2023-07-18T16:09:11.860Z,44.80
2023-07-18T16:11:42.058Z,45.40
2023-07-18T16:14:12.617Z,44.60
2023-07-18T16:16:44.320Z,44.50
2023-07-18T16:19:15.990Z,44.60
2023-07-18T16:21:46.242Z,44.50
2023-07-18T16:24:16.218Z,44.60
2023-07-18T16:26:47.957Z,44.50
2023-07-18T16:29:18.450Z,44.30
2023-07-18T16:31:49.374Z,44.10
2023-07-18T16:34:22.105Z,44.10
2023-07-18T16:36:53.081Z,44.20
2023-07-18T16:39:23.810Z,44.70
2023-07-18T16:41:56.008Z,43.90
2023-07-18T16:44:26.842Z,44.30
2023-07-18T16:46:59.250Z,44.20
2023-07-18T16:49:33.313Z,44.20
2023-07-18T16:52:03.561Z,44.30
2023-07-18T16:54:33.827Z,44.10
2023-07-18T16:57:03.892Z,44.20
2023-07-18T16:59:33.934Z,44.20
2023-07-18T17:02:06.064Z,43.90
2023-07-18T17:04:38.462Z,44.20
2023-07-18T17:07:09.176Z,43.90
2023-07-18T17:09:39.105Z,43.70
2023-07-18T17:12:10.214Z,44.00
2023-07-18T17:14:40.298Z,44.10
2023-07-18T17:17:11.051Z,44.10
2023-07-18T17:19:53.530Z,43.90
2023-07-18T17:22:32.786Z,42.90
2023-07-18T17:25:05.709Z,43.30
2023-07-18T17:27:36.776Z,43.60
2023-07-18T17:30:09.319Z,43.40
2023-07-18T17:32:39.762Z,43.10
2023-07-18T17:35:11.784Z,42.90
2023-07-18T17:37:46.073Z,42.70
2023-07-18T17:40:17.323Z,43.20
2023-07-18T17:42:49.732Z,43.30
2023-07-18T17:45:20.201Z,43.20
2023-07-18T17:47:51.648Z,43.20
2023-07-18T17:50:24.543Z,43.70
2023-07-18T17:52:55.157Z,43.60
2023-07-18T17:55:26.126Z,44.20
2023-07-18T17:57:57.549Z,44.10
2023-07-18T18:00:27.942Z,43.90
2023-07-18T18:02:57.941Z,43.60
2023-07-18T18:05:45.885Z,43.90
2023-07-18T18:08:16.706Z,43.20
2023-07-18T18:10:48.340Z,43.20
2023-07-18T18:13:18.892Z,43.40
2023-07-18T18:16:00.768Z,43.30
2023-07-18T18:18:37.499Z,43.60
2023-07-18T18:21:10.299Z,44.00
2023-07-18T18:23:41.273Z,44.40
2023-07-18T18:26:12.117Z,44.80
2023-07-18T18:28:43.193Z,44.30
2023-07-18T18:31:13.506Z,44.50
2023-07-18T18:33:44.669Z,44.50
2023-07-18T18:36:17.054Z,44.60
2023-07-18T18:38:47.508Z,44.90
2023-07-18T18:41:17.779Z,44.90
2023-07-18T18:43:48.220Z,44.90
2023-07-18T18:46:18.689Z,44.80
2023-07-18T18:48:48.901Z,45.10
2023-07-18T18:51:21.306Z,45.10
2023-07-18T18:53:51.649Z,45.30
2023-07-18T18:56:24.947Z,45.10
2023-07-18T18:58:58.037Z,45.30
2023-07-18T19:01:28.658Z,45.50
2023-07-18T19:03:58.738Z,45.70
2023-07-18T19:06:31.434Z,45.70
2023-07-18T19:09:04.617Z,45.60
2023-07-18T19:11:34.756Z,45.70
2023-07-18T19:14:05.209Z,45.80
2023-07-18T19:16:39.966Z,45.90
2023-07-18T19:19:13.250Z,46.20
2023-07-18T19:21:44.914Z,47.00
2023-07-18T19:24:14.957Z,47.60
2023-07-18T19:26:45.288Z,48.00
2023-07-18T19:29:15.466Z,48.40
2023-07-18T19:31:45.819Z,48.60
2023-07-18T19:34:16.135Z,48.90
2023-07-18T19:36:48.702Z,49.00
2023-07-18T19:39:19.508Z,49.10
2023-07-18T19:41:49.666Z,49.20
2023-07-18T19:44:22.095Z,49.30
2023-07-18T19:46:52.252Z,49.90
2023-07-18T19:49:23.216Z,50.90
2023-07-18T19:51:55.243Z,51.00
2023-07-18T19:54:25.690Z,51.20
2023-07-18T19:56:56.695Z,52.00
2023-07-18T19:59:26.966Z,51.80
2023-07-18T20:01:57.460Z,52.00
2023-07-18T20:04:27.847Z,51.80
2023-07-18T20:07:00.902Z,51.80
2023-07-18T20:09:31.569Z,51.70
2023-07-18T20:12:02.251Z,51.80
2023-07-18T20:14:32.942Z,52.10
2023-07-18T20:17:03.844Z,51.90
2023-07-18T20:19:34.849Z,51.90
2023-07-18T20:22:06.964Z,52.20
2023-07-18T20:24:37.004Z,52.70
2023-07-18T20:27:08.124Z,52.50
2023-07-18T20:29:38.607Z,52.20
2023-07-18T20:32:09.073Z,52.30
2023-07-18T20:34:41.198Z,52.20
2023-07-18T20:37:13.312Z,52.20
2023-07-18T20:39:43.737Z,52.00
2023-07-18T20:42:14.974Z,52.30
2023-07-18T20:44:45.991Z,52.70
2023-07-18T20:47:16.433Z,52.60
2023-07-18T20:49:46.680Z,52.70
2023-07-18T20:52:18.484Z,53.00
2023-07-18T20:54:48.708Z,53.20
2023-07-18T20:57:18.618Z,52.80
2023-07-18T20:59:49.735Z,52.90
2023-07-18T21:02:19.860Z,53.20
2023-07-18T21:04:49.904Z,53.00
2023-07-18T21:07:21.845Z,53.00
2023-07-18T21:09:52.454Z,53.20
2023-07-18T21:12:24.144Z,53.50
2023-07-18T21:14:55.442Z,53.40
2023-07-18T21:17:26.514Z,53.60
2023-07-18T21:19:56.994Z,53.90
2023-07-18T21:22:29.707Z,53.90
2023-07-18T21:24:59.807Z,53.90
2023-07-18T21:27:30.436Z,53.50
2023-07-18T21:30:01.529Z,53.30
2023-07-18T21:32:33.253Z,53.30
2023-07-18T21:35:03.314Z,53.30
2023-07-18T21:37:35.731Z,53.30
2023-07-18T21:40:07.492Z,53.60
2023-07-18T21:42:38.093Z,53.90
2023-07-18T21:45:08.866Z,54.00
2023-07-18T21:47:38.979Z,54.30
2023-07-18T21:50:10.809Z,54.10
2023-07-18T21:52:44.946Z,54.30
2023-07-18T21:55:15.166Z,54.40
2023-07-18T21:57:45.104Z,54.50
2023-07-18T22:00:16.470Z,54.50
2023-07-18T22:02:47.116Z,54.60
2023-07-18T22:05:19.545Z,54.50
2023-07-18T22:07:51.245Z,54.30
2023-07-18T22:10:21.648Z,54.50
2023-07-18T22:12:52.328Z,54.30
2023-07-18T22:15:22.909Z,54.60
2023-07-18T22:17:53.066Z,54.70
2023-07-18T22:20:23.237Z,54.80
2023-07-18T22:22:55.241Z,55.00
2023-07-18T22:25:25.859Z,54.90
2023-07-18T22:27:56.228Z,55.10
2023-07-18T22:30:26.414Z,55.30
2023-07-18T22:32:56.570Z,55.50
2023-07-18T22:35:26.631Z,55.40
2023-07-18T22:37:58.912Z,55.50
2023-07-18T22:40:28.818Z,55.80
2023-07-18T22:42:58.998Z,55.90
2023-07-18T22:45:29.186Z,55.70
2023-07-18T22:47:59.411Z,55.70
2023-07-18T22:50:29.578Z,55.80
2023-07-18T22:53:02.032Z,55.80
2023-07-18T22:55:33.150Z,56.00
2023-07-18T22:58:03.520Z,56.10
2023-07-18T23:00:33.948Z,56.10
2023-07-18T23:03:04.059Z,56.40
2023-07-18T23:05:34.223Z,57.10
2023-07-18T23:08:06.116Z,56.80
2023-07-18T23:10:36.210Z,56.90
2023-07-18T23:13:06.638Z,56.70
2023-07-18T23:15:36.861Z,56.90
2023-07-18T23:18:07.310Z,57.00
2023-07-18T23:20:37.655Z,57.20
2023-07-18T23:23:09.844Z,56.80
2023-07-18T23:25:39.729Z,56.90
2023-07-18T23:28:09.925Z,56.70
2023-07-18T23:30:45.193Z,56.60
2023-07-18T23:33:15.872Z,56.90
2023-07-18T23:35:45.932Z,56.90
2023-07-18T23:38:19.849Z,56.90
2023-07-18T23:40:50.060Z,56.90
2023-07-18T23:43:20.102Z,56.90
2023-07-18T23:45:50.348Z,56.70
2023-07-18T23:48:20.550Z,56.90
2023-07-18T23:50:51.247Z,56.90
2023-07-18T23:53:22.894Z,57.00
2023-07-18T23:55:53.461Z,57.00
2023-07-18T23:58:23.417Z,57.10
